Time;durP1;ratioP1;P1;durP2;ratioP2;P2;SDS_P1;SDS_P2;PMS_P1;PMS_P2;Temp;Humidity;BMP_temperature;BMP_pressure;BME280_temperature;BME280_humidity;BME280_pressure;Samples;Min_cycle;Max_cycle;Signal;HPM_P1;HPM_P2
2022/10/13 00:00:24;;;;;;;;;;;;;;;16.02;55.59;100966.31;4928750;28;8843;-79
2022/10/13 00:02:50;;;;;;;;;;;;;;;16.00;55.65;100961.13;4940830;28;7351;-79
2022/10/13 00:05:16;;;;;;;;;;;;;;;16.02;55.55;100955.97;4926038;28;8410;-79
2022/10/13 00:07:41;;;;;;;;;;;;;;;16.05;55.47;100953.53;4937613;28;7382;-79
2022/10/13 00:10:08;;;;;;;;;;;;;;;16.05;56.01;100958.69;4922147;28;8802;-79
2022/10/13 00:12:35;;;;;;;;;;;;;;;16.06;56.05;100955.28;4926361;28;12442;-79
2022/10/13 00:15:01;;;;;;;;;;;;;;;16.07;55.84;100954.44;4906563;29;8585;-79
2022/10/13 00:17:27;;;;;;;;;;;;;;;16.09;55.94;100953.69;4927489;28;6856;-79
2022/10/13 00:19:52;;;;;;;;;;;;;;;16.12;55.82;100960.63;4938090;28;7237;-79
2022/10/13 00:22:18;;;;;;;;;;;;;;;16.16;56.00;100956.44;4925860;29;7174;-78
2022/10/13 00:24:48;;;;;;;;;;;;;;;16.18;56.13;100953.09;4940971;28;8843;-79
2022/10/13 00:27:14;;;;;;;;;;;;;;;16.22;56.03;100960.16;4920454;29;8397;-79
2022/10/13 00:29:40;;;;;;;;;;;;;;;16.23;55.82;100951.56;4939005;28;7344;-80
2022/10/13 00:32:05;;;;;;;;;;;;;;;16.26;55.64;100948.16;4926318;28;8476;-79
2022/10/13 00:34:31;;;;;;;;;;;;;;;16.27;55.44;100944.75;4942640;28;8383;-79
2022/10/13 00:36:57;;;;;;;;;;;;;;;16.29;55.68;100947.41;4932190;28;8505;-79
2022/10/13 00:39:22;;;;;;;;;;;;;;;16.28;55.77;100943.06;4942558;28;8139;-79
2022/10/13 00:41:48;;;;;;;;;;;;;;;16.28;55.45;100941.38;4942352;28;6785;-78
2022/10/13 00:44:56;;;;;;;;;;;;;;;16.29;55.64;100934.47;4943549;28;7278;-79
2022/10/13 00:47:25;;;;;;;;;;;;;;;16.27;55.69;100937.00;4943883;28;7384;-78
2022/10/13 00:49:54;;;;;;;;;;;;;;;16.30;55.80;100941.41;4943310;28;7256;-79
2022/10/13 00:52:22;;;;;;;;;;;;;;;16.30;55.57;100938.81;4939323;28;7146;-80
2022/10/13 00:54:49;;;;;;;;;;;;;;;16.33;55.78;100933.75;4935696;28;7176;-79
2022/10/13 00:57:19;;;;;;;;;;;;;;;16.33;55.85;100934.63;4939698;28;8568;-78
2022/10/13 00:59:46;;;;;;;;;;;;;;;16.35;55.42;100937.28;4932257;28;6816;-79
2022/10/13 01:02:12;;;;;;;;;;;;;;;16.36;55.76;100933.84;4926219;28;8415;-79
2022/10/13 01:04:44;;;;;;;;;;;;;;;16.40;55.39;100930.53;4908652;28;8473;-79
2022/10/13 01:07:11;;;;;;;;;;;;;;;16.42;55.56;100922.81;4940647;28;8817;-78
2022/10/13 01:09:37;;;;;;;;;;;;;;;16.44;55.66;100922.03;4939540;28;6800;-80
2022/10/13 01:12:21;;;;;;;;;;;;;;;16.47;55.49;100916.09;4945445;28;8496;-78
2022/10/13 01:15:12;;;;;;;;;;;;;;;16.51;55.50;100915.34;4939520;28;7392;-78
2022/10/13 01:18:21;;;;;;;;;;;;;;;16.52;55.52;100907.66;4939718;28;8774;-79
2022/10/13 01:21:05;;;;;;;;;;;;;;;16.52;55.78;100902.47;4940841;28;7357;-78
2022/10/13 01:24:02;;;;;;;;;;;;;;;16.58;55.79;100903.47;4940706;28;7064;-78
2022/10/13 01:26:55;;;;;;;;;;;;;;;16.60;55.75;100902.72;4942658;28;6992;-80
2022/10/13 01:29:58;;;;;;;;;;;;;;;16.64;55.78;100899.38;4939080;28;7248;-78
2022/10/13 01:32:57;;;;;;;;;;;;;;;16.66;55.83;100896.84;4922354;28;7240;-79
2022/10/13 01:35:58;;;;;;;;;;;;;;;16.69;55.42;100894.34;4922554;29;8445;-80
2022/10/13 01:38:45;;;;;;;;;;;;;;;16.73;55.43;100892.72;4911244;29;8447;-81
2022/10/13 01:41:26;;;;;;;;;;;;;;;16.76;55.38;100891.13;4933668;28;7432;-78
2022/10/13 01:44:22;;;;;;;;;;;;;;;16.79;55.15;100891.19;4921884;28;7612;-80
2022/10/13 01:46:50;;;;;;;;;;;;;;;16.78;55.03;100886.84;4920434;29;8563;-81
2022/10/13 01:49:22;;;;;;;;;;;;;;;16.79;54.84;100879.97;4935568;28;7219;-79
2022/10/13 01:51:50;;;;;;;;;;;;;;;16.78;55.05;100884.28;4940025;28;7022;-80
2022/10/13 01:54:16;;;;;;;;;;;;;;;16.78;54.95;100881.69;4919965;28;8735;-79
2022/10/13 01:56:52;;;;;;;;;;;;;;;16.78;54.84;100886.84;4924285;29;6809;-79
2022/10/13 01:59:18;;;;;;;;;;;;;;;16.77;54.74;100885.09;4923464;28;7098;-79
2022/10/13 02:01:56;;;;;;;;;;;;;;;16.76;54.84;100893.69;4938822;28;8386;-79
2022/10/13 02:04:30;;;;;;;;;;;;;;;16.76;55.00;100880.75;4921729;29;7207;-82
2022/10/13 02:07:09;;;;;;;;;;;;;;;16.76;54.79;100887.66;4922887;29;8651;-81
2022/10/13 02:09:49;;;;;;;;;;;;;;;16.77;55.17;100890.28;4934556;28;7038;-83
2022/10/13 02:12:45;;;;;;;;;;;;;;;16.78;54.75;100875.63;4919685;28;8438;-81
2022/10/13 02:15:18;;;;;;;;;;;;;;;16.77;54.90;100874.75;4935931;28;8480;-83
2022/10/13 02:17:44;;;;;;;;;;;;;;;16.75;54.81;100881.59;4920395;28;8897;-83
2022/10/13 02:20:11;;;;;;;;;;;;;;;16.75;54.53;100878.13;4935118;28;6811;-83
2022/10/13 02:22:44;;;;;;;;;;;;;;;16.74;55.09;100879.84;4927541;28;8561;-83
2022/10/13 02:25:10;;;;;;;;;;;;;;;16.72;54.96;100876.34;4937427;28;7380;-83
2022/10/13 02:27:36;;;;;;;;;;;;;;;16.74;54.80;100876.38;4926187;29;8505;-82
2022/10/13 02:30:02;;;;;;;;;;;;;;;16.74;54.76;100874.66;4938384;28;6780;-82
2022/10/13 02:32:28;;;;;;;;;;;;;;;16.74;54.61;100876.38;4913063;29;6804;-84
2022/10/13 02:34:54;;;;;;;;;;;;;;;16.74;54.90;100873.78;4918375;28;8921;-82
2022/10/13 02:37:19;;;;;;;;;;;;;;;16.75;54.81;100872.94;4923619;29;6979;-82
2022/10/13 02:39:45;;;;;;;;;;;;;;;16.76;54.64;100870.41;4935684;28;7090;-83
2022/10/13 02:42:11;;;;;;;;;;;;;;;16.76;54.39;100862.66;4920628;28;6788;-84
2022/10/13 02:44:38;;;;;;;;;;;;;;;16.76;54.60;100867.81;4935252;28;6939;-81
2022/10/13 02:47:03;;;;;;;;;;;;;;;16.75;54.84;100854.81;4934399;28;6796;-84
2022/10/13 02:49:29;;;;;;;;;;;;;;;16.74;54.41;100856.56;4917157;29;6781;-84
2022/10/13 02:51:55;;;;;;;;;;;;;;;16.74;54.63;100851.38;4935462;28;7207;-81
2022/10/13 02:54:21;;;;;;;;;;;;;;;16.75;54.16;100847.06;4893919;29;8412;-84
2022/10/13 02:56:46;;;;;;;;;;;;;;;16.77;54.41;100845.41;4920857;29;6983;-83
2022/10/13 02:59:12;;;;;;;;;;;;;;;16.78;54.52;100845.44;4925456;29;6951;-83
2022/10/13 03:01:40;;;;;;;;;;;;;;;16.79;54.28;100842.03;4918184;28;6823;-83
2022/10/13 03:04:07;;;;;;;;;;;;;;;16.79;54.03;100836.84;4920393;28;7387;-82
2022/10/13 03:06:33;;;;;;;;;;;;;;;16.79;54.26;100839.44;4918251;29;7367;-83
2022/10/13 03:08:59;;;;;;;;;;;;;;;16.80;53.84;100836.03;4918386;29;6919;-84
2022/10/13 03:11:25;;;;;;;;;;;;;;;16.80;54.04;100830.84;4933849;28;10226;-84
2022/10/13 03:13:51;;;;;;;;;;;;;;;16.82;53.67;100835.19;4910050;29;6897;-84
2022/10/13 03:16:17;;;;;;;;;;;;;;;16.79;53.84;100826.50;4935592;28;6788;-83
2022/10/13 03:18:42;;;;;;;;;;;;;;;16.79;53.95;100826.50;4920627;29;6792;-83
2022/10/13 03:21:09;;;;;;;;;;;;;;;16.79;54.12;100829.06;4919087;29;6800;-84
2022/10/13 03:23:34;;;;;;;;;;;;;;;16.77;53.67;100820.41;4933980;28;8559;-82
2022/10/13 03:26:01;;;;;;;;;;;;;;;16.78;54.25;100824.72;4932699;28;8323;-83
2022/10/13 03:28:27;;;;;;;;;;;;;;;16.79;54.01;100825.63;4915003;29;6862;-83
2022/10/13 03:31:06;;;;;;;;;;;;;;;16.79;54.33;100831.66;4918412;28;7144;-80
2022/10/13 03:33:31;;;;;;;;;;;;;;;16.78;54.27;100829.06;4921961;28;7477;-84
2022/10/13 03:36:03;;;;;;;;;;;;;;;16.78;54.02;100837.69;4938983;28;8513;-84
2022/10/13 03:38:31;;;;;;;;;;;;;;;16.79;53.97;100831.66;4935858;28;8404;-84
2022/10/13 03:40:57;;;;;;;;;;;;;;;16.79;54.13;100831.66;4935832;28;6966;-83
2022/10/13 03:43:23;;;;;;;;;;;;;;;16.80;53.73;100824.78;4924048;29;7254;-78
2022/10/13 03:46:01;;;;;;;;;;;;;;;16.80;53.79;100830.84;4938595;28;7846;-81
2022/10/13 03:48:28;;;;;;;;;;;;;;;16.78;54.03;100823.88;4920495;29;6788;-83
2022/10/13 03:50:55;;;;;;;;;;;;;;;16.77;53.72;100822.13;4936066;28;7518;-82
2022/10/13 03:53:21;;;;;;;;;;;;;;;16.74;53.64;100822.91;4919190;29;7540;-82
2022/10/13 03:55:53;;;;;;;;;;;;;;;16.72;53.61;100819.41;4903538;28;8424;-83
2022/10/13 03:58:21;;;;;;;;;;;;;;;16.72;53.91;100828.84;4934105;28;8507;-81
2022/10/13 04:00:47;;;;;;;;;;;;;;;16.73;54.02;100826.31;4933696;28;8805;-82
2022/10/13 04:03:13;;;;;;;;;;;;;;;16.74;53.96;100822.00;4925176;28;6982;-82
2022/10/13 04:05:39;;;;;;;;;;;;;;;16.75;53.93;100811.72;4932710;28;6961;-82
2022/10/13 04:08:05;;;;;;;;;;;;;;;16.75;54.17;100803.94;4934739;28;6992;-83
2022/10/13 04:10:31;;;;;;;;;;;;;;;16.78;53.55;100811.78;4933786;28;7738;-78
2022/10/13 04:12:56;;;;;;;;;;;;;;;16.80;54.01;100807.56;4937944;28;6773;-78
2022/10/13 04:15:22;;;;;;;;;;;;;;;16.83;54.05;100816.25;4935669;28;7830;-84
2022/10/13 04:17:48;;;;;;;;;;;;;;;16.84;53.71;100816.28;4936443;28;7014;-80
2022/10/13 04:20:15;;;;;;;;;;;;;;;16.85;53.60;100809.41;4935632;28;8650;-84
2022/10/13 04:22:41;;;;;;;;;;;;;;;16.85;53.82;100815.47;4927226;28;7331;-83
2022/10/13 04:25:07;;;;;;;;;;;;;;;16.82;53.70;100805.00;4939294;28;8883;-83
2022/10/13 04:27:36;;;;;;;;;;;;;;;16.83;53.49;100811.06;4938546;28;7197;-80
2022/10/13 04:30:05;;;;;;;;;;;;;;;16.82;54.13;100811.91;4906499;28;8306;-83
2022/10/13 04:32:31;;;;;;;;;;;;;;;16.80;53.72;100811.84;4940424;28;8688;-82
2022/10/13 04:34:57;;;;;;;;;;;;;;;16.79;53.61;100810.97;4936706;28;8370;-83
2022/10/13 04:37:24;;;;;;;;;;;;;;;16.78;53.49;100809.22;4925190;28;8382;-83
2022/10/13 04:39:49;;;;;;;;;;;;;;;16.78;53.74;100818.69;4931284;28;8537;-84
2022/10/13 04:42:15;;;;;;;;;;;;;;;16.78;53.82;100814.38;4937920;28;7230;-83
2022/10/13 04:44:40;;;;;;;;;;;;;;;16.77;54.30;100807.44;4940954;28;7262;-82
2022/10/13 04:47:07;;;;;;;;;;;;;;;16.78;53.85;100801.44;4940690;28;6776;-79
2022/10/13 04:49:33;;;;;;;;;;;;;;;16.80;53.98;100807.56;4924826;28;9654;-82
2022/10/13 04:51:58;;;;;;;;;;;;;;;16.80;53.39;100802.38;4939456;28;6792;-84
2022/10/13 04:54:24;;;;;;;;;;;;;;;16.77;53.87;100802.28;4939763;28;6772;-83
2022/10/13 04:56:50;;;;;;;;;;;;;;;16.78;54.09;100803.16;4941262;28;6768;-81
2022/10/13 04:59:15;;;;;;;;;;;;;;;16.76;54.26;100787.59;4945260;28;6780;-80
2022/10/13 05:01:41;;;;;;;;;;;;;;;16.75;54.30;100796.19;4925030;28;6963;-84
2022/10/13 05:04:09;;;;;;;;;;;;;;;16.73;54.16;100790.09;4929798;28;6804;-82
2022/10/13 05:06:40;;;;;;;;;;;;;;;16.73;54.01;100781.44;4939278;28;6784;-83
2022/10/13 05:09:06;;;;;;;;;;;;;;;16.74;54.12;100778.00;4941186;28;7283;-83
2022/10/13 05:11:32;;;;;;;;;;;;;;;16.74;54.11;100781.50;4924482;28;8435;-78
2022/10/13 05:14:00;;;;;;;;;;;;;;;16.74;53.94;100780.59;4939988;28;6792;-81
2022/10/13 05:16:26;;;;;;;;;;;;;;;16.74;54.09;100775.44;4941579;28;6868;-84
2022/10/13 05:18:53;;;;;;;;;;;;;;;16.75;54.04;100772.91;4940374;28;6970;-83
2022/10/13 05:21:24;;;;;;;;;;;;;;;16.74;54.32;100776.31;4941764;28;6984;-82
2022/10/13 05:23:54;;;;;;;;;;;;;;;16.77;54.58;100776.41;4925318;28;8775;-83
2022/10/13 05:26:27;;;;;;;;;;;;;;;16.78;54.49;100770.38;4938120;28;6808;-84
2022/10/13 05:28:58;;;;;;;;;;;;;;;16.81;54.09;100761.84;4922882;28;7609;-84
2022/10/13 05:31:27;;;;;;;;;;;;;;;16.84;54.49;100766.22;4913858;28;8761;-84
2022/10/13 05:33:54;;;;;;;;;;;;;;;16.87;54.17;100759.44;4927495;28;7275;-82
2022/10/13 05:36:36;;;;;;;;;;;;;;;16.91;54.24;100768.16;4932682;28;6859;-83
2022/10/13 05:39:06;;;;;;;;;;;;;;;16.95;54.12;100764.81;4906715;28;8514;-82
2022/10/13 05:41:32;;;;;;;;;;;;;;;16.98;54.41;100764.03;4919827;28;7036;-83
2022/10/13 05:44:05;;;;;;;;;;;;;;;17.01;53.90;100758.94;4935431;28;7198;-84
2022/10/13 05:46:31;;;;;;;;;;;;;;;17.03;53.97;100763.34;4939891;28;7221;-83
2022/10/13 05:48:57;;;;;;;;;;;;;;;17.07;54.02;100761.72;4935245;28;6801;-84
2022/10/13 05:51:36;;;;;;;;;;;;;;;17.10;54.14;100766.09;4931575;28;7204;-81
2022/10/13 05:54:33;;;;;;;;;;;;;;;17.13;53.83;100753.22;4921826;28;8953;-81
2022/10/13 05:57:09;;;;;;;;;;;;;;;17.15;54.05;100757.63;4937593;28;7610;-84
2022/10/13 05:59:41;;;;;;;;;;;;;;;17.18;54.03;100759.41;4929271;28;9854;-84
2022/10/13 06:02:13;;;;;;;;;;;;;;;17.19;53.98;100749.09;4917395;28;7608;-81
2022/10/13 06:04:46;;;;;;;;;;;;;;;17.20;54.22;100749.97;4939422;28;7229;-76
2022/10/13 06:07:12;;;;;;;;;;;;;;;17.21;53.73;100746.53;4939751;28;7838;-83
2022/10/13 06:09:39;;;;;;;;;;;;;;;17.21;53.93;100751.72;4935848;28;6982;-82
2022/10/13 06:12:07;;;;;;;;;;;;;;;17.24;53.88;100756.09;4941849;28;6796;-80
2022/10/13 06:14:33;;;;;;;;;;;;;;;17.25;54.02;100756.13;4922153;28;6848;-81
2022/10/13 06:16:59;;;;;;;;;;;;;;;17.25;53.53;100743.19;4943086;28;6852;-83
2022/10/13 06:19:25;;;;;;;;;;;;;;;17.28;53.92;100745.00;4939455;28;9959;-83
2022/10/13 06:21:50;;;;;;;;;;;;;;;17.29;53.46;100751.91;4939937;28;7072;-80
2022/10/13 06:24:16;;;;;;;;;;;;;;;17.30;53.88;100751.97;4906143;28;7139;-85
2022/10/13 06:26:42;;;;;;;;;;;;;;;17.29;53.46;100745.03;4934988;28;7372;-80
2022/10/13 06:29:08;;;;;;;;;;;;;;;17.31;53.51;100743.34;4914979;28;6963;-82
2022/10/13 06:31:33;;;;;;;;;;;;;;;17.32;53.61;100741.63;4916316;28;8491;-82
2022/10/13 06:33:59;;;;;;;;;;;;;;;17.33;53.64;100739.09;4937011;28;8511;-81
2022/10/13 06:36:25;;;;;;;;;;;;;;;17.35;53.78;100742.59;4935586;28;8236;-84
2022/10/13 06:38:51;;;;;;;;;;;;;;;17.38;53.67;100740.91;4938108;28;6780;-83
2022/10/13 06:41:17;;;;;;;;;;;;;;;17.40;53.83;100736.66;4926104;28;8490;-82
2022/10/13 06:43:43;;;;;;;;;;;;;;;17.43;53.33;100740.22;4919677;28;6831;-80
2022/10/13 06:46:10;;;;;;;;;;;;;;;17.44;53.94;100728.13;4932542;28;7128;-82
2022/10/13 06:48:36;;;;;;;;;;;;;;;17.47;53.81;100718.72;4930844;28;7451;-80
2022/10/13 06:51:06;;;;;;;;;;;;;;;17.52;53.48;100729.19;4937744;28;9009;-82
2022/10/13 06:53:32;;;;;;;;;;;;;;;17.58;53.26;100724.16;4939831;28;7135;-83
2022/10/13 06:56:00;;;;;;;;;;;;;;;17.63;53.29;100730.31;4937632;28;6768;-80
2022/10/13 06:58:26;;;;;;;;;;;;;;;17.67;53.50;100731.28;4926293;28;6971;-82
2022/10/13 07:00:53;;;;;;;;;;;;;;;17.71;53.73;100725.31;4932550;28;8743;-82
2022/10/13 07:03:20;;;;;;;;;;;;;;;17.75;52.87;100721.97;4900535;29;7288;-82
2022/10/13 07:05:45;;;;;;;;;;;;;;;17.80;53.01;100729.84;4901511;29;7242;-82
2022/10/13 07:08:12;;;;;;;;;;;;;;;17.84;53.44;100721.28;4916053;29;6856;-82
2022/10/13 07:10:39;;;;;;;;;;;;;;;17.88;52.89;100730.91;4917583;29;6964;-83
2022/10/13 07:13:05;;;;;;;;;;;;;;;17.90;52.76;100733.53;4902113;29;6801;-83
2022/10/13 07:15:31;;;;;;;;;;;;;;;17.91;52.48;100730.09;4918843;29;8730;-82
2022/10/13 07:17:58;;;;;;;;;;;;;;;17.94;52.42;100734.47;4918230;29;8554;-82
2022/10/13 07:20:24;;;;;;;;;;;;;;;17.95;52.34;100737.13;4919544;29;7027;-83
2022/10/13 07:22:53;;;;;;;;;;;;;;;17.98;52.59;100744.09;4898885;29;8484;-82
2022/10/13 07:25:19;;;;;;;;;;;;;;;18.02;52.60;100744.19;4910485;29;8464;-83
2022/10/13 07:27:44;;;;;;;;;;;;;;;18.06;52.41;100740.00;4902763;29;7238;-82
2022/10/13 07:30:11;;;;;;;;;;;;;;;18.13;52.81;100746.19;4920396;29;6768;-82
2022/10/13 07:32:40;;;;;;;;;;;;;;;18.23;52.47;100752.44;4928321;28;7780;-81
2022/10/13 07:35:08;;;;;;;;;;;;;;;18.31;52.85;100748.31;4912779;29;7801;-83
2022/10/13 07:37:35;;;;;;;;;;;;;;;18.42;52.30;100754.59;4933297;28;6859;-78
2022/10/13 07:40:02;;;;;;;;;;;;;;;18.54;52.84;100753.09;4899902;29;7399;-79
2022/10/13 07:42:28;;;;;;;;;;;;;;;18.63;52.34;100753.28;4923042;28;7097;-80
2022/10/13 07:44:54;;;;;;;;;;;;;;;18.72;52.59;100750.88;4937490;28;8391;-82
2022/10/13 07:47:19;;;;;;;;;;;;;;;18.82;52.46;100743.25;4922205;28;6879;-83
2022/10/13 07:49:45;;;;;;;;;;;;;;;18.96;52.15;100749.63;4915006;29;6950;-83
2022/10/13 07:52:11;;;;;;;;;;;;;;;19.08;52.00;100750.72;4922092;28;8377;-81
2022/10/13 07:54:36;;;;;;;;;;;;;;;19.18;51.65;100751.78;4919346;28;7234;-82
2022/10/13 07:57:02;;;;;;;;;;;;;;;19.25;51.34;100746.72;4934929;28;8527;-83
2022/10/13 07:59:28;;;;;;;;;;;;;;;19.32;50.98;100744.22;4937741;28;8274;-82
2022/10/13 08:01:54;;;;;;;;;;;;;;;19.35;51.05;100741.69;4930411;28;6966;-82
2022/10/13 08:04:19;;;;;;;;;;;;;;;19.35;51.19;100745.13;4930360;28;8860;-83
2022/10/13 08:06:45;;;;;;;;;;;;;;;19.34;50.59;100742.53;4937487;28;7157;-82
2022/10/13 08:09:12;;;;;;;;;;;;;;;19.31;50.93;100735.56;4919953;29;6798;-82
2022/10/13 08:11:38;;;;;;;;;;;;;;;19.27;51.17;100738.97;4934985;28;6780;-79
2022/10/13 08:14:03;;;;;;;;;;;;;;;19.26;50.56;100744.97;4940045;28;7016;-82
2022/10/13 08:16:31;;;;;;;;;;;;;;;19.27;50.41;100736.34;4938949;28;6944;-82
2022/10/13 08:18:58;;;;;;;;;;;;;;;19.28;50.68;100745.91;4938532;28;7297;-81
2022/10/13 08:21:23;;;;;;;;;;;;;;;19.31;50.92;100747.66;4934645;28;7038;-80
2022/10/13 08:23:50;;;;;;;;;;;;;;;19.38;51.10;100746.91;4939438;28;6952;-83
2022/10/13 08:26:24;;;;;;;;;;;;;;;19.46;50.94;100755.72;4930415;28;7250;-83
2022/10/13 08:28:50;;;;;;;;;;;;;;;19.56;51.05;100749.81;4934276;28;7063;-83
2022/10/13 08:31:17;;;;;;;;;;;;;;;19.68;50.79;100743.97;4913402;28;9834;-80
2022/10/13 08:33:46;;;;;;;;;;;;;;;19.81;50.50;100747.63;4941386;28;7091;-82
2022/10/13 08:36:14;;;;;;;;;;;;;;;19.96;50.32;100736.63;4938414;28;7403;-81
2022/10/13 08:38:39;;;;;;;;;;;;;;;20.13;50.20;100730.75;4926256;28;7687;-83
2022/10/13 08:41:28;;;;;;;;;;;;;;;20.33;50.23;100741.44;4940160;28;7184;-82
2022/10/13 08:44:33;;;;;;;;;;;;;;;20.57;49.98;100728.72;4935584;28;7183;-81
2022/10/13 08:47:22;;;;;;;;;;;;;;;20.80;49.71;100731.59;4940155;28;6992;-82
2022/10/13 08:49:49;;;;;;;;;;;;;;;20.98;48.79;100728.31;4937563;28;7186;-83
2022/10/13 08:52:24;;;;;;;;;;;;;;;21.09;48.33;100728.44;4941713;28;7185;-84
2022/10/13 08:54:54;;;;;;;;;;;;;;;21.13;47.94;100727.59;4927497;28;7345;-83
2022/10/13 08:57:20;;;;;;;;;;;;;;;21.16;47.76;100719.84;4911235;28;8463;-83
2022/10/13 08:59:46;;;;;;;;;;;;;;;21.11;47.48;100726.72;4942156;28;7355;-85
2022/10/13 09:02:23;;;;;;;;;;;;;;;21.05;47.27;100731.88;4937601;28;7238;-83
2022/10/13 09:04:52;;;;;;;;;;;;;;;20.97;47.03;100725.72;4938305;28;7299;-80
2022/10/13 09:07:30;;;;;;;;;;;;;;;20.88;47.05;100729.09;4940449;28;7289;-84
2022/10/13 09:09:56;;;;;;;;;;;;;;;20.80;47.49;100721.16;4920341;28;9602;-84
2022/10/13 09:12:24;;;;;;;;;;;;;;;20.75;47.17;100731.53;4938809;28;7138;-84
2022/10/13 09:15:09;;;;;;;;;;;;;;;20.71;47.49;100734.09;4937371;28;6893;-79
2022/10/13 09:17:38;;;;;;;;;;;;;;;20.64;47.64;100727.94;4928951;28;6841;-83
2022/10/13 09:20:26;;;;;;;;;;;;;;;20.61;47.67;100728.78;4938957;28;6792;-84
2022/10/13 09:23:13;;;;;;;;;;;;;;;20.55;47.36;100728.69;4940500;28;6872;-81
2022/10/13 09:25:50;;;;;;;;;;;;;;;20.47;47.63;100725.13;4933228;28;6928;-84
2022/10/13 09:28:28;;;;;;;;;;;;;;;20.43;47.70;100720.75;4924323;28;7500;-81
2022/10/13 09:31:12;;;;;;;;;;;;;;;20.40;47.38;100721.56;4941454;28;8617;-83
2022/10/13 09:33:38;;;;;;;;;;;;;;;20.38;48.21;100716.38;4937684;28;6804;-81
2022/10/13 09:36:05;;;;;;;;;;;;;;;20.37;47.79;100706.78;4938537;28;8471;-83
2022/10/13 09:38:32;;;;;;;;;;;;;;;20.38;48.28;100700.75;4918223;28;8576;-81
2022/10/13 09:41:20;;;;;;;;;;;;;;;20.39;48.40;100699.00;4933145;28;7236;-81
2022/10/13 09:43:46;;;;;;;;;;;;;;;20.37;48.61;100704.19;4933457;28;7249;-80
2022/10/13 09:46:38;;;;;;;;;;;;;;;20.38;48.34;100695.53;4937464;28;6768;-83
2022/10/13 09:49:43;;;;;;;;;;;;;;;20.37;48.47;100692.91;4937613;28;7209;-82
2022/10/13 09:52:11;;;;;;;;;;;;;;;20.39;48.70;100686.00;4920118;28;8479;-83
2022/10/13 09:54:50;;;;;;;;;;;;;;;20.44;48.30;100691.25;4942042;28;7205;-81
2022/10/13 09:57:40;;;;;;;;;;;;;;;20.51;48.36;100686.13;4935249;28;8874;-84
2022/10/13 10:00:23;;;;;;;;;;;;;;;20.60;49.06;100687.97;4935188;28;7214;-84
2022/10/13 10:03:05;;;;;;;;;;;;;;;20.70;48.85;100685.47;4935809;28;11562;-81
2022/10/13 10:05:55;;;;;;;;;;;;;;;20.79;48.37;100681.22;4939424;28;6812;-80
2022/10/13 10:08:40;;;;;;;;;;;;;;;20.88;48.24;100683.09;4938948;28;6800;-80
2022/10/13 10:11:18;;;;;;;;;;;;;;;20.94;48.37;100684.88;4939379;28;6812;-84
2022/10/13 10:13:44;;;;;;;;;;;;;;;20.94;48.21;100675.31;4937085;28;8569;-83
2022/10/13 10:16:16;;;;;;;;;;;;;;;20.93;48.05;100681.38;4941473;28;6962;-84
2022/10/13 10:18:50;;;;;;;;;;;;;;;20.87;48.08;100681.34;4935843;28;8413;-83
2022/10/13 10:21:34;;;;;;;;;;;;;;;20.84;48.02;100677.84;4926085;28;8381;-81
2022/10/13 10:24:21;;;;;;;;;;;;;;;20.79;48.00;100673.41;4940898;28;8537;-83
2022/10/13 10:27:02;;;;;;;;;;;;;;;20.74;47.94;100682.91;4939753;28;7270;-82
2022/10/13 10:30:01;;;;;;;;;;;;;;;20.68;48.18;100677.63;4922400;28;8733;-84
2022/10/13 10:32:47;;;;;;;;;;;;;;;20.58;48.05;100687.09;4922589;28;7251;-82
2022/10/13 10:35:28;;;;;;;;;;;;;;;20.44;48.56;100691.25;4940374;28;7190;-85
2022/10/13 10:38:17;;;;;;;;;;;;;;;20.29;48.59;100690.22;4922782;28;8775;-81
2022/10/13 10:40:58;;;;;;;;;;;;;;;20.14;49.14;100688.31;4933804;28;8738;-84
2022/10/13 10:43:38;;;;;;;;;;;;;;;20.00;49.54;100685.50;4942190;28;7267;-84
2022/10/13 10:46:29;;;;;;;;;;;;;;;19.85;49.80;100674.00;4939557;28;7018;-84
2022/10/13 10:49:03;;;;;;;;;;;;;;;19.69;49.94;100675.50;4933994;28;7480;-83
2022/10/13 10:51:35;;;;;;;;;;;;;;;19.61;50.29;100684.06;4934164;28;8817;-81
2022/10/13 10:54:44;;;;;;;;;;;;;;;19.47;51.29;100681.25;4922098;28;6989;-84
2022/10/13 10:57:30;;;;;;;;;;;;;;;19.29;51.74;100672.28;4933018;28;7386;-83
2022/10/13 11:00:10;;;;;;;;;;;;;;;19.16;51.88;100671.22;4936203;28;8845;-83
2022/10/13 11:03:00;;;;;;;;;;;;;;;19.06;52.29;100659.78;4931685;28;11332;-80
2022/10/13 11:06:04;;;;;;;;;;;;;;;18.98;53.29;100662.22;4939457;28;6992;-84
2022/10/13 11:08:45;;;;;;;;;;;;;;;18.93;53.01;100661.28;4938051;28;7226;-82
2022/10/13 11:11:37;;;;;;;;;;;;;;;18.88;53.69;100655.09;4936353;28;8452;-80
2022/10/13 11:14:05;;;;;;;;;;;;;;;18.87;53.93;100658.56;4934803;28;6983;-81
2022/10/13 11:16:36;;;;;;;;;;;;;;;18.87;55.05;100658.56;4939230;28;7975;-82
2022/10/13 11:19:28;;;;;;;;;;;;;;;18.90;55.24;100656.00;4933993;28;7268;-79
2022/10/13 11:21:53;;;;;;;;;;;;;;;18.95;55.87;100650.88;4937880;28;7248;-79
2022/10/13 11:24:46;;;;;;;;;;;;;;;19.04;56.14;100651.09;4935939;28;6946;-82
2022/10/13 11:27:15;;;;;;;;;;;;;;;19.13;55.89;100640.84;4928342;28;7857;-81
2022/10/13 11:29:47;;;;;;;;;;;;;;;19.28;55.53;100642.81;4931869;28;7087;-81
2022/10/13 11:32:25;;;;;;;;;;;;;;;19.42;55.65;100636.97;4935215;28;7240;-81
2022/10/13 11:35:09;;;;;;;;;;;;;;;19.56;55.49;100630.25;4916173;28;7919;-82
2022/10/13 11:37:59;;;;;;;;;;;;;;;19.77;56.04;100633.16;4918270;28;8432;-82
2022/10/13 11:41:04;;;;;;;;;;;;;;;20.01;55.94;100622.22;4937919;28;7237;-81
2022/10/13 11:44:07;;;;;;;;;;;;;;;20.25;54.96;100621.66;4937940;28;6808;-81
2022/10/13 11:47:05;;;;;;;;;;;;;;;20.49;55.02;100620.16;4935648;28;8455;-82
2022/10/13 11:50:13;;;;;;;;;;;;;;;20.74;54.39;100603.91;4938315;28;7258;-78
2022/10/13 11:53:00;;;;;;;;;;;;;;;20.96;53.82;100607.59;4938476;28;7199;-82
2022/10/13 11:55:54;;;;;;;;;;;;;;;21.09;53.47;100609.44;4936745;28;6792;-81
2022/10/13 11:58:30;;;;;;;;;;;;;;;21.22;53.42;100597.38;4933020;28;6865;-80
2022/10/13 12:01:00;;;;;;;;;;;;;;;21.32;52.90;100602.66;4929632;28;7205;-80
2022/10/13 12:03:43;;;;;;;;;;;;;;;21.40;53.06;100603.59;4932886;28;7321;-81
2022/10/13 12:06:15;;;;;;;;;;;;;;;21.42;52.75;100587.97;4936108;28;8472;-81
2022/10/13 12:08:50;;;;;;;;;;;;;;;21.45;52.67;100588.84;4938809;28;7743;-81
2022/10/13 12:11:42;;;;;;;;;;;;;;;21.48;52.47;100591.47;4918983;29;8440;-82
2022/10/13 12:14:31;;;;;;;;;;;;;;;21.49;52.25;100588.00;4920196;29;6892;-82
2022/10/13 12:17:00;;;;;;;;;;;;;;;21.50;52.42;100584.53;4917831;28;7076;-80
2022/10/13 12:19:30;;;;;;;;;;;;;;;21.51;52.19;100591.47;4938520;28;7612;-82
2022/10/13 12:22:00;;;;;;;;;;;;;;;21.51;52.02;100590.63;4920215;28;8838;-82
2022/10/13 12:24:29;;;;;;;;;;;;;;;21.50;52.55;100579.31;4937391;28;8519;-82
2022/10/13 12:26:57;;;;;;;;;;;;;;;21.48;51.99;100581.03;4933029;28;7105;-81
2022/10/13 12:29:27;;;;;;;;;;;;;;;21.36;52.00;100583.59;4941759;28;7490;-81
2022/10/13 12:31:54;;;;;;;;;;;;;;;21.18;52.00;100576.50;4936067;28;6807;-80
2022/10/13 12:34:34;;;;;;;;;;;;;;;20.97;52.15;100574.63;4922408;28;6796;-81
2022/10/13 12:37:17;;;;;;;;;;;;;;;20.75;52.38;100577.00;4913020;28;8707;-81
2022/10/13 12:39:43;;;;;;;;;;;;;;;20.54;52.67;100578.53;4938184;28;6800;-81
2022/10/13 12:42:13;;;;;;;;;;;;;;;20.39;52.50;100576.66;4920712;28;8503;-80
2022/10/13 12:44:40;;;;;;;;;;;;;;;20.31;52.79;100579.19;4937465;28;7216;-80
2022/10/13 12:47:43;;;;;;;;;;;;;;;20.27;53.60;100582.59;4937884;28;6792;-81
2022/10/13 12:50:24;;;;;;;;;;;;;;;20.25;53.39;100581.72;4932041;28;8935;-81
2022/10/13 12:53:03;;;;;;;;;;;;;;;20.22;53.60;100585.16;4940668;28;7019;-80
2022/10/13 12:55:31;;;;;;;;;;;;;;;20.21;53.19;100578.22;4939049;28;7303;-79
2022/10/13 12:57:57;;;;;;;;;;;;;;;20.17;53.80;100576.44;4939134;28;7042;-82
2022/10/13 13:00:27;;;;;;;;;;;;;;;20.17;53.67;100575.56;4931816;28;6780;-81
2022/10/13 13:03:05;;;;;;;;;;;;;;;20.17;54.44;100575.56;4934638;28;7193;-82
2022/10/13 13:05:43;;;;;;;;;;;;;;;20.16;54.49;100573.81;4935653;28;7206;-81
2022/10/13 13:08:30;;;;;;;;;;;;;;;20.12;54.15;100578.09;4941641;28;7219;-82
2022/10/13 13:10:59;;;;;;;;;;;;;;;20.09;54.10;100573.75;4911054;28;8462;-82
2022/10/13 13:13:26;;;;;;;;;;;;;;;20.08;54.88;100566.78;4919314;28;8131;-80